createdAt,value
2023-03-08T00:00:47.605Z,4.60
2023-03-08T00:03:14.999Z,4.38
2023-03-08T00:05:44.217Z,5.85
2023-03-08T00:08:11.255Z,4.63
2023-03-08T00:10:38.045Z,5.00
2023-03-08T00:13:04.768Z,5.13
2023-03-08T00:15:31.509Z,4.18
2023-03-08T00:17:58.255Z,4.22
2023-03-08T00:20:24.967Z,3.80
2023-03-08T00:22:53.066Z,4.07
2023-03-08T00:25:19.805Z,3.65
2023-03-08T00:27:46.560Z,5.28
2023-03-08T00:30:14.255Z,5.13
2023-03-08T00:32:41.336Z,4.43
2023-03-08T00:35:09.089Z,3.92
2023-03-08T00:37:35.803Z,4.00
2023-03-08T00:40:04.686Z,4.18
2023-03-08T00:42:31.528Z,4.35
2023-03-08T00:44:58.209Z,4.82
2023-03-08T00:47:24.992Z,4.18
2023-03-08T00:49:51.711Z,4.28
2023-03-08T00:52:18.440Z,4.22
2023-03-08T00:54:45.161Z,4.68
2023-03-08T00:57:13.349Z,4.53
2023-03-08T00:59:40.057Z,5.03
2023-03-08T01:02:06.837Z,5.38
2023-03-08T01:04:33.911Z,4.90
2023-03-08T01:07:00.978Z,4.63
2023-03-08T01:09:27.728Z,4.75
2023-03-08T01:11:54.467Z,4.18
2023-03-08T01:14:22.547Z,4.20
2023-03-08T01:16:49.286Z,5.45
2023-03-08T01:19:15.983Z,5.82
2023-03-08T01:21:42.703Z,4.35
2023-03-08T01:24:09.528Z,4.75
2023-03-08T01:26:36.312Z,4.50
2023-03-08T01:29:03.148Z,5.18
2023-03-08T01:31:31.395Z,4.80
2023-03-08T01:33:58.488Z,4.30
2023-03-08T01:36:27.824Z,4.28
2023-03-08T01:38:55.079Z,4.82
2023-03-08T01:41:24.474Z,5.75
2023-03-08T01:43:51.317Z,5.13
2023-03-08T01:46:22.009Z,5.15
2023-03-08T01:48:54.369Z,5.68
2023-03-08T01:51:26.194Z,3.97
2023-03-08T01:53:53.893Z,5.43
2023-03-08T01:56:21.657Z,4.95
2023-03-08T01:58:51.162Z,4.50
2023-03-08T02:01:19.139Z,5.75
2023-03-08T02:03:46.884Z,5.50
2023-03-08T02:06:15.924Z,5.25
2023-03-08T02:08:43.025Z,4.95
2023-03-08T02:11:10.734Z,4.25
2023-03-08T02:13:38.002Z,4.63
2023-03-08T02:16:07.588Z,4.63
2023-03-08T02:18:34.279Z,4.82
2023-03-08T02:21:01.608Z,5.38
2023-03-08T02:23:29.708Z,4.82
2023-03-08T02:25:59.099Z,5.90
2023-03-08T02:28:26.771Z,5.07
2023-03-08T02:30:54.905Z,4.88
2023-03-08T02:33:22.163Z,5.13
2023-03-08T02:35:48.982Z,3.63
2023-03-08T02:38:18.805Z,5.22
2023-03-08T02:40:47.282Z,4.75
2023-03-08T02:43:14.215Z,4.78
2023-03-08T02:45:40.996Z,4.53
2023-03-08T02:48:08.783Z,5.30
2023-03-08T02:50:35.751Z,4.00
2023-03-08T02:53:02.696Z,4.85
2023-03-08T02:55:29.528Z,4.45
2023-03-08T02:57:57.579Z,4.43
2023-03-08T03:00:24.375Z,3.85
2023-03-08T03:02:51.166Z,4.78
2023-03-08T03:05:18.028Z,5.00
2023-03-08T03:07:44.737Z,4.75
2023-03-08T03:10:13.237Z,5.03
2023-03-08T03:12:40.574Z,4.55
2023-03-08T03:15:10.220Z,5.50
2023-03-08T03:17:37.480Z,4.45
2023-03-08T03:20:05.004Z,4.03
2023-03-08T03:22:31.912Z,5.93
2023-03-08T03:24:58.675Z,4.18
2023-03-08T03:27:25.498Z,4.88
2023-03-08T03:29:52.257Z,4.82
2023-03-08T03:32:20.324Z,5.15
2023-03-08T03:34:47.269Z,4.35
2023-03-08T03:37:14.067Z,5.03
2023-03-08T03:39:40.934Z,5.38
2023-03-08T03:42:08.077Z,4.90
2023-03-08T03:44:34.943Z,5.53
2023-03-08T03:47:01.636Z,4.85
2023-03-08T03:49:29.952Z,4.80
2023-03-08T03:51:56.617Z,5.15
2023-03-08T03:54:23.428Z,5.03
2023-03-08T03:56:50.211Z,4.75
2023-03-08T03:59:17.252Z,6.25
2023-03-08T04:01:44.154Z,4.30
2023-03-08T04:04:11.211Z,5.07
2023-03-08T04:06:39.253Z,4.65
2023-03-08T04:09:08.510Z,4.57
2023-03-08T04:11:37.378Z,5.00
2023-03-08T04:14:04.917Z,5.57
2023-03-08T04:16:32.885Z,5.50
2023-03-08T04:19:01.977Z,6.03
2023-03-08T04:21:29.962Z,6.45
2023-03-08T04:24:00.508Z,5.38
2023-03-08T04:26:27.799Z,4.90
2023-03-08T04:28:54.689Z,6.40
2023-03-08T04:31:23.049Z,5.93
2023-03-08T04:33:50.472Z,5.40
2023-03-08T04:36:17.937Z,4.80
2023-03-08T04:38:45.051Z,5.30
2023-03-08T04:41:13.729Z,5.32
2023-03-08T04:43:43.809Z,5.43
2023-03-08T04:46:11.037Z,6.22
2023-03-08T04:48:38.266Z,5.35
2023-03-08T04:51:06.335Z,6.72
2023-03-08T04:53:34.080Z,6.00
2023-03-08T04:56:00.903Z,4.93
2023-03-08T04:58:29.818Z,5.85
2023-03-08T05:00:56.986Z,5.78
2023-03-08T05:03:23.796Z,5.57
2023-03-08T05:05:52.314Z,6.57
2023-03-08T05:08:20.029Z,5.90
2023-03-08T05:10:50.283Z,5.20
2023-03-08T05:13:17.031Z,6.15
2023-03-08T05:15:45.210Z,5.53
2023-03-08T05:18:11.952Z,6.50
2023-03-08T05:20:38.743Z,5.47
2023-03-08T05:23:05.467Z,6.40
2023-03-08T05:25:32.236Z,5.40
2023-03-08T05:27:58.967Z,6.22
2023-03-08T05:30:25.846Z,5.88
2023-03-08T05:32:53.943Z,6.22
2023-03-08T05:35:20.681Z,5.38
2023-03-08T05:37:47.504Z,5.10
2023-03-08T05:40:14.437Z,6.18
2023-03-08T05:42:41.153Z,6.63
2023-03-08T05:45:08.802Z,6.00
2023-03-08T05:47:35.607Z,5.57
2023-03-08T05:50:04.054Z,6.10
2023-03-08T05:52:33.425Z,5.80
2023-03-08T05:55:01.184Z,5.90
2023-03-08T05:57:28.687Z,6.30
2023-03-08T05:59:55.484Z,7.10
2023-03-08T06:02:22.234Z,5.68
2023-03-08T06:04:49.129Z,6.00
2023-03-08T06:07:17.198Z,5.60
2023-03-08T06:09:43.913Z,6.80
2023-03-08T06:12:10.637Z,6.25
2023-03-08T06:14:37.321Z,5.93
2023-03-08T06:17:04.176Z,5.88
2023-03-08T06:19:31.130Z,5.95
2023-03-08T06:21:57.865Z,6.10
2023-03-08T06:24:25.908Z,6.30
2023-03-08T06:26:52.673Z,6.85
2023-03-08T06:29:19.372Z,6.82
2023-03-08T06:31:46.140Z,7.05
2023-03-08T06:34:13.034Z,6.47
2023-03-08T06:36:39.967Z,6.82
2023-03-08T06:39:06.677Z,6.82
2023-03-08T06:41:34.756Z,6.10
2023-03-08T06:44:01.572Z,6.20
2023-03-08T06:46:28.438Z,7.53
2023-03-08T06:48:55.223Z,8.02
2023-03-08T06:51:22.103Z,7.47
2023-03-08T06:53:48.963Z,6.85
2023-03-08T06:56:16.939Z,6.85
2023-03-08T06:58:45.303Z,6.95
2023-03-08T07:01:13.528Z,8.13
2023-03-08T07:03:40.417Z,7.20
2023-03-08T07:06:09.317Z,7.20
2023-03-08T07:08:37.149Z,7.50
2023-03-08T07:11:04.415Z,7.63
2023-03-08T07:13:31.274Z,8.18
2023-03-08T07:15:59.443Z,6.30
2023-03-08T07:18:26.328Z,6.18
2023-03-08T07:20:53.529Z,6.30
2023-03-08T07:23:20.233Z,7.10
2023-03-08T07:25:46.946Z,6.55
2023-03-08T07:28:13.755Z,6.10
2023-03-08T07:30:40.463Z,6.40
2023-03-08T07:33:11.850Z,5.97
2023-03-08T07:35:40.121Z,6.47
2023-03-08T07:38:07.091Z,7.15
2023-03-08T07:40:33.807Z,5.68
2023-03-08T07:43:00.520Z,6.70
2023-03-08T07:45:27.255Z,7.68
2023-03-08T07:47:54.162Z,6.05
2023-03-08T07:50:22.646Z,6.75
2023-03-08T07:52:49.404Z,7.05
2023-03-08T07:55:16.739Z,7.10
2023-03-08T07:57:43.495Z,7.10
2023-03-08T08:00:11.365Z,6.25
2023-03-08T08:02:38.225Z,7.25
2023-03-08T08:05:05.632Z,6.43
2023-03-08T08:07:33.736Z,7.85
2023-03-08T08:10:00.476Z,6.82
2023-03-08T08:12:27.345Z,7.38
2023-03-08T08:14:54.139Z,7.47
2023-03-08T08:17:20.970Z,7.60
2023-03-08T08:19:47.831Z,6.50
2023-03-08T08:22:15.069Z,7.50
2023-03-08T08:24:43.651Z,7.70
2023-03-08T08:27:10.393Z,7.78
2023-03-08T08:29:37.272Z,8.95
2023-03-08T08:32:04.325Z,7.90
2023-03-08T08:34:31.018Z,7.28
2023-03-08T08:36:57.764Z,7.70
2023-03-08T08:39:24.480Z,7.78
2023-03-08T08:41:52.621Z,7.80
2023-03-08T08:44:19.319Z,8.27
2023-03-08T08:46:46.077Z,7.47
2023-03-08T08:49:12.806Z,7.97
2023-03-08T08:51:39.573Z,8.13
2023-03-08T08:54:06.364Z,8.07
2023-03-08T08:56:33.330Z,7.25
2023-03-08T08:59:02.320Z,7.47
2023-03-08T09:01:30.957Z,8.60
2023-03-08T09:03:58.233Z,8.18
2023-03-08T09:06:25.862Z,8.43
2023-03-08T09:08:53.935Z,9.27
2023-03-08T09:11:21.034Z,7.60
2023-03-08T09:13:48.189Z,7.30
2023-03-08T09:16:19.302Z,7.13
2023-03-08T09:18:46.171Z,7.07
2023-03-08T09:21:13.007Z,7.28
2023-03-08T09:23:39.755Z,6.78
2023-03-08T09:26:07.119Z,8.65
2023-03-08T09:28:33.895Z,8.20
2023-03-08T09:31:00.799Z,7.70
2023-03-08T09:33:29.040Z,7.93
2023-03-08T09:35:56.743Z,7.70
2023-03-08T09:38:23.880Z,8.07
2023-03-08T09:40:58.891Z,9.70
2023-03-08T09:43:37.657Z,9.32
2023-03-08T09:46:05.065Z,9.07
2023-03-08T09:48:34.276Z,9.13
2023-03-08T09:51:04.606Z,8.63
2023-03-08T09:53:36.805Z,8.60
2023-03-08T09:56:06.997Z,10.07
2023-03-08T09:58:37.704Z,8.73
2023-03-08T10:01:16.632Z,7.43
2023-03-08T10:04:20.322Z,9.05
2023-03-08T10:06:56.515Z,9.05
2023-03-08T10:09:30.557Z,8.85
2023-03-08T10:14:32.193Z,7.70
2023-03-08T10:17:02.912Z,7.78
2023-03-08T10:19:35.147Z,8.82
2023-03-08T10:22:09.111Z,10.27
2023-03-08T10:24:42.690Z,9.07
2023-03-08T10:27:22.423Z,8.40
2023-03-08T10:29:53.963Z,7.60
2023-03-08T10:32:20.842Z,5.80
2023-03-08T10:34:48.149Z,6.15
2023-03-08T10:37:17.272Z,6.07
2023-03-08T10:39:52.202Z,5.00
2023-03-08T10:42:21.584Z,5.88
2023-03-08T10:44:55.501Z,4.53
2023-03-08T10:47:24.306Z,5.82
2023-03-08T10:50:04.540Z,5.63
2023-03-08T10:52:32.719Z,4.60
2023-03-08T10:55:04.273Z,5.47
2023-03-08T10:57:31.490Z,5.05
2023-03-08T11:00:04.459Z,4.15
2023-03-08T11:02:31.259Z,4.53
2023-03-08T11:04:59.494Z,4.10
2023-03-08T11:07:28.427Z,4.10
2023-03-08T11:10:15.602Z,4.05
2023-03-08T11:12:43.433Z,4.05
2023-03-08T11:15:14.000Z,4.32
2023-03-08T11:17:49.630Z,4.00
2023-03-08T11:20:20.193Z,5.20
2023-03-08T11:23:00.580Z,4.63
2023-03-08T11:25:44.390Z,5.05
2023-03-08T11:28:38.390Z,4.53
2023-03-08T11:31:15.424Z,4.78
2023-03-08T11:34:10.834Z,3.40
2023-03-08T11:36:42.043Z,3.72
2023-03-08T11:39:16.760Z,3.35
2023-03-08T11:41:51.872Z,4.10
2023-03-08T11:44:31.391Z,4.10
2023-03-08T11:47:24.623Z,4.25
2023-03-08T11:50:03.017Z,4.63
2023-03-08T11:52:36.292Z,4.35
2023-03-08T11:55:21.108Z,4.20
2023-03-08T11:57:55.457Z,4.18
2023-03-08T12:00:28.563Z,3.05
2023-03-08T12:02:59.274Z,3.35
2023-03-08T12:05:28.613Z,2.83
2023-03-08T12:08:00.032Z,3.40
2023-03-08T12:10:30.405Z,3.53
2023-03-08T12:13:04.779Z,3.30
2023-03-08T12:15:37.510Z,3.17
2023-03-08T12:18:11.188Z,2.22
2023-03-08T12:20:41.395Z,4.18
2023-03-08T12:23:19.086Z,2.75
2023-03-08T12:25:51.008Z,3.60
2023-03-08T12:28:23.518Z,4.40
2023-03-08T12:31:03.430Z,4.45
2023-03-08T12:33:31.938Z,4.35
2023-03-08T12:36:01.524Z,1.48
2023-03-08T12:38:36.899Z,2.10
2023-03-08T12:41:04.424Z,3.92
2023-03-08T12:43:35.088Z,4.03
2023-03-08T12:46:05.737Z,4.63
2023-03-08T12:48:35.092Z,2.80
2023-03-08T12:51:06.107Z,4.70
2023-03-08T12:53:37.490Z,4.32
2023-03-08T12:56:15.433Z,1.67
2023-03-08T12:58:51.045Z,3.67
2023-03-08T13:01:32.048Z,4.47
2023-03-08T13:03:59.135Z,4.32
2023-03-08T13:07:03.418Z,2.88
2023-03-08T13:09:33.960Z,2.60
2023-03-08T13:12:13.290Z,4.00
2023-03-08T13:14:43.512Z,2.83
2023-03-08T13:17:33.704Z,3.33
2023-03-08T13:20:03.522Z,4.95
2023-03-08T13:22:35.204Z,3.47
2023-03-08T13:25:08.921Z,3.20
2023-03-08T13:27:45.927Z,3.75
2023-03-08T13:30:22.022Z,4.15
2023-03-08T13:32:49.846Z,4.22
2023-03-08T13:35:18.120Z,2.78
2023-03-08T13:37:52.211Z,3.20
2023-03-08T13:42:53.591Z,3.47
2023-03-08T13:45:22.195Z,3.53
2023-03-08T13:47:49.658Z,3.58
2023-03-08T13:50:20.157Z,1.67
2023-03-08T13:52:47.376Z,3.72
2023-03-08T13:55:19.717Z,3.03
2023-03-08T13:57:50.759Z,2.42
2023-03-08T14:00:25.724Z,3.00
2023-03-08T14:02:53.933Z,2.53
2023-03-08T14:05:23.659Z,2.78
2023-03-08T14:07:58.466Z,3.40
2023-03-08T14:10:31.620Z,3.45
2023-03-08T14:12:58.454Z,2.63
2023-03-08T14:15:26.647Z,3.15
2023-03-08T14:17:53.629Z,3.50
2023-03-08T14:20:22.476Z,2.78
2023-03-08T14:22:51.491Z,2.67
2023-03-08T14:25:27.692Z,2.28
2023-03-08T14:27:54.821Z,1.95
2023-03-08T14:30:23.759Z,2.28
2023-03-08T14:33:06.633Z,1.98
2023-03-08T14:35:37.083Z,1.70
2023-03-08T14:38:13.075Z,3.67
2023-03-08T14:40:47.130Z,3.17
2023-03-08T14:45:52.200Z,2.45
2023-03-08T14:48:28.105Z,2.78
2023-03-08T14:50:57.575Z,3.53
2023-03-08T14:53:30.989Z,3.88
2023-03-08T14:55:58.487Z,3.25
2023-03-08T14:58:28.035Z,2.60
2023-03-08T15:00:57.178Z,2.55
2023-03-08T15:03:25.218Z,2.85
2023-03-08T15:05:52.668Z,3.22
2023-03-08T15:08:19.938Z,3.95
2023-03-08T15:10:47.293Z,2.50
2023-03-08T15:13:15.782Z,3.22
2023-03-08T15:15:42.856Z,1.67
2023-03-08T15:18:09.898Z,2.50
2023-03-08T15:20:40.450Z,2.30
2023-03-08T15:23:08.653Z,2.17
2023-03-08T15:25:37.741Z,2.03
2023-03-08T15:28:05.527Z,2.03
2023-03-08T15:30:33.076Z,1.80
2023-03-08T15:33:00.005Z,1.80
2023-03-08T15:35:26.767Z,1.75
2023-03-08T15:37:54.822Z,2.22
2023-03-08T15:40:23.766Z,1.85
2023-03-08T15:42:50.570Z,2.58
2023-03-08T15:45:17.473Z,2.03
2023-03-08T15:47:44.278Z,1.80
2023-03-08T15:50:15.143Z,2.28
2023-03-08T15:52:41.842Z,2.30
2023-03-08T15:55:11.603Z,2.53
2023-03-08T15:57:38.417Z,2.50
2023-03-08T16:00:06.648Z,2.00
2023-03-08T16:02:33.341Z,1.98
2023-03-08T16:05:00.160Z,1.35
2023-03-08T16:07:26.879Z,1.63
2023-03-08T16:09:53.631Z,1.70
2023-03-08T16:12:21.677Z,1.80
2023-03-08T16:14:49.740Z,1.85
2023-03-08T16:17:17.481Z,1.73
2023-03-08T16:19:44.614Z,1.48
2023-03-08T16:22:11.611Z,1.95
2023-03-08T16:24:38.511Z,1.73
2023-03-08T16:27:05.659Z,1.65
2023-03-08T16:29:34.681Z,1.65
2023-03-08T16:32:01.646Z,1.40
2023-03-08T16:34:29.718Z,1.58
2023-03-08T16:36:56.761Z,1.58
2023-03-08T16:39:24.160Z,1.70
2023-03-08T16:41:51.564Z,1.50
2023-03-08T16:44:20.687Z,1.48
2023-03-08T16:46:49.527Z,1.35
2023-03-08T16:49:16.737Z,1.60
2023-03-08T16:51:43.619Z,1.58
2023-03-08T16:54:10.925Z,1.67
2023-03-08T16:56:38.314Z,1.52
2023-03-08T16:59:05.341Z,1.55
2023-03-08T17:01:32.466Z,1.35
2023-03-08T17:04:00.560Z,1.90
2023-03-08T17:06:29.706Z,1.80
2023-03-08T17:08:57.537Z,1.20
2023-03-08T17:11:26.520Z,1.20
2023-03-08T17:13:56.903Z,1.40
2023-03-08T17:16:26.934Z,1.65
2023-03-08T17:18:54.944Z,1.20
2023-03-08T17:21:23.885Z,1.30
2023-03-08T17:23:52.501Z,1.30
2023-03-08T17:26:21.396Z,1.25
2023-03-08T17:28:49.222Z,1.23
2023-03-08T17:31:18.422Z,1.08
2023-03-08T17:33:46.811Z,1.40
2023-03-08T17:36:15.110Z,1.10
2023-03-08T17:38:43.808Z,1.20
2023-03-08T17:41:14.044Z,1.52
2023-03-08T17:43:41.723Z,1.33
2023-03-08T17:46:12.205Z,1.25
2023-03-08T17:48:39.558Z,1.10
2023-03-08T17:51:08.657Z,1.05
2023-03-08T17:53:36.069Z,0.80
2023-03-08T17:56:07.774Z,1.20
2023-03-08T17:58:35.032Z,0.70
2023-03-08T18:01:07.785Z,1.08
2023-03-08T18:03:34.930Z,0.98
2023-03-08T18:06:02.063Z,0.50
2023-03-08T18:08:29.002Z,1.10
2023-03-08T18:10:55.966Z,0.85
2023-03-08T18:13:24.324Z,0.80
2023-03-08T18:15:54.534Z,1.20
2023-03-08T18:18:22.006Z,1.00
2023-03-08T18:20:48.995Z,1.10
2023-03-08T18:23:15.968Z,1.48
2023-03-08T18:25:42.935Z,1.02
2023-03-08T18:28:10.040Z,1.00
2023-03-08T18:30:39.317Z,1.40
2023-03-08T18:33:06.427Z,1.17
2023-03-08T18:35:33.523Z,1.15
2023-03-08T18:38:01.392Z,1.02
2023-03-08T18:40:29.129Z,1.60
2023-03-08T18:42:56.574Z,1.75
2023-03-08T18:45:23.938Z,1.88
2023-03-08T18:47:52.580Z,1.73
2023-03-08T18:50:19.774Z,1.27
2023-03-08T18:52:47.071Z,2.03
2023-03-08T18:55:14.272Z,2.00
2023-03-08T18:57:41.274Z,1.00
2023-03-08T19:00:09.421Z,1.27
2023-03-08T19:02:36.517Z,1.48
2023-03-08T19:05:05.977Z,1.90
2023-03-08T19:07:32.964Z,1.90
2023-03-08T19:09:59.774Z,1.90
2023-03-08T19:12:26.561Z,1.70
2023-03-08T19:14:53.335Z,1.30
2023-03-08T19:17:20.023Z,1.23
2023-03-08T19:19:46.756Z,1.70
2023-03-08T19:22:14.823Z,1.00
2023-03-08T19:24:41.541Z,1.50
2023-03-08T19:27:08.414Z,1.52
2023-03-08T19:29:35.160Z,0.57
2023-03-08T19:32:03.984Z,0.93
2023-03-08T19:34:32.995Z,0.80
2023-03-08T19:37:00.254Z,0.73
2023-03-08T19:39:29.709Z,0.65
2023-03-08T19:41:57.877Z,0.85
2023-03-08T19:44:25.640Z,0.85
2023-03-08T19:46:52.370Z,0.80
2023-03-08T19:49:21.426Z,0.90
2023-03-08T19:51:49.273Z,0.20
2023-03-08T19:54:16.235Z,0.90
2023-03-08T19:56:44.616Z,0.80
2023-03-08T19:59:11.580Z,0.60
2023-03-08T20:01:39.748Z,0.65
2023-03-08T20:04:07.298Z,0.60
2023-03-08T20:06:36.133Z,0.38
2023-03-08T20:09:04.572Z,0.60
2023-03-08T20:11:31.338Z,0.65
2023-03-08T20:13:59.730Z,0.68
2023-03-08T20:16:27.473Z,0.68
2023-03-08T20:18:54.779Z,0.45
2023-03-08T20:21:23.295Z,0.70
2023-03-08T20:23:50.980Z,0.40
2023-03-08T20:26:17.935Z,0.70
2023-03-08T20:28:44.676Z,0.50
2023-03-08T20:31:13.538Z,0.30
2023-03-08T20:33:40.501Z,0.43
2023-03-08T20:36:08.089Z,0.68
2023-03-08T20:38:34.763Z,0.38
2023-03-08T20:41:03.023Z,0.63
2023-03-08T20:43:31.317Z,0.40
2023-03-08T20:45:58.407Z,0.45
2023-03-08T20:48:26.438Z,0.60
2023-03-08T20:50:58.672Z,0.50
2023-03-08T20:53:25.485Z,0.63
2023-03-08T20:55:52.177Z,0.68
2023-03-08T20:58:18.969Z,0.82
2023-03-08T21:00:46.107Z,0.73
2023-03-08T21:03:12.897Z,0.38
2023-03-08T21:05:40.934Z,0.47
2023-03-08T21:08:07.786Z,0.55
2023-03-08T21:10:34.831Z,0.43
2023-03-08T21:13:01.861Z,0.35
2023-03-08T21:15:28.645Z,0.22
2023-03-08T21:17:55.414Z,0.40
2023-03-08T21:20:22.387Z,0.93
2023-03-08T21:22:50.508Z,0.70
2023-03-08T21:25:17.974Z,0.60
2023-03-08T21:27:44.690Z,0.70
2023-03-08T21:30:12.372Z,0.75
2023-03-08T21:32:39.128Z,0.88
2023-03-08T21:35:06.632Z,1.33
2023-03-08T21:37:34.183Z,1.00
2023-03-08T21:40:02.406Z,1.15
2023-03-08T21:42:29.144Z,1.23
2023-03-08T21:44:56.290Z,1.05
2023-03-08T21:47:23.048Z,1.08
2023-03-08T21:49:49.746Z,1.52
2023-03-08T21:52:16.453Z,1.38
2023-03-08T21:54:43.151Z,1.38
2023-03-08T21:57:11.183Z,1.30
2023-03-08T21:59:37.866Z,0.95
2023-03-08T22:02:04.671Z,1.33
2023-03-08T22:04:31.409Z,1.38
2023-03-08T22:06:58.174Z,1.40
2023-03-08T22:09:26.319Z,1.08
2023-03-08T22:11:53.193Z,1.60
2023-03-08T22:14:21.235Z,1.75
2023-03-08T22:16:47.933Z,1.38
2023-03-08T22:19:14.646Z,1.42
2023-03-08T22:21:41.395Z,1.38
2023-03-08T22:24:09.462Z,1.63
2023-03-08T22:26:36.220Z,2.05
2023-03-08T22:29:02.937Z,1.55
2023-03-08T22:31:31.114Z,1.83
2023-03-08T22:33:58.357Z,1.63
2023-03-08T22:36:25.114Z,1.40
2023-03-08T22:38:51.810Z,2.38
2023-03-08T22:41:20.928Z,1.80
2023-03-08T22:43:48.156Z,1.73
2023-03-08T22:46:16.722Z,1.85
2023-03-08T22:48:45.861Z,1.90
2023-03-08T22:51:14.066Z,1.42
2023-03-08T22:53:41.176Z,1.92
2023-03-08T22:56:15.409Z,2.10
2023-03-08T22:58:42.275Z,1.55
2023-03-08T23:01:17.184Z,2.00
2023-03-08T23:03:45.546Z,1.60
2023-03-08T23:06:12.447Z,2.05
2023-03-08T23:08:39.184Z,1.60
2023-03-08T23:11:06.348Z,1.90
2023-03-08T23:13:34.715Z,1.52
2023-03-08T23:16:01.593Z,2.33
2023-03-08T23:18:28.377Z,2.00
2023-03-08T23:20:56.426Z,1.95
2023-03-08T23:23:23.276Z,2.10
2023-03-08T23:25:49.990Z,2.28
2023-03-08T23:28:16.807Z,1.50
2023-03-08T23:30:43.516Z,1.73
2023-03-08T23:33:10.292Z,2.08
2023-03-08T23:35:37.028Z,2.15
2023-03-08T23:38:05.178Z,1.73
2023-03-08T23:40:32.037Z,2.05
2023-03-08T23:42:58.770Z,2.35
2023-03-08T23:45:25.701Z,1.88
2023-03-08T23:47:52.450Z,1.67
2023-03-08T23:50:19.294Z,1.83
2023-03-08T23:52:46.170Z,1.90
2023-03-08T23:55:14.316Z,1.80
2023-03-08T23:57:41.123Z,1.88
